createdAt,value
2019-05-30T00:01:17.019Z,97.40
2019-05-30T00:03:44.745Z,97.70
2019-05-30T00:06:12.688Z,98.10
2019-05-30T00:08:40.331Z,98.30
2019-05-30T00:11:08.093Z,97.20
2019-05-30T00:13:35.798Z,97.40
2019-05-30T00:16:06.937Z,98.00
2019-05-30T00:18:34.660Z,97.90
2019-05-30T00:21:02.930Z,98.00
2019-05-30T00:23:30.967Z,97.80
2019-05-30T00:25:59.179Z,97.50
2019-05-30T00:28:27.055Z,98.00
2019-05-30T00:30:54.700Z,98.20
2019-05-30T00:33:22.342Z,98.00
2019-05-30T00:35:50.011Z,98.20
2019-05-30T00:38:17.662Z,97.70
2019-05-30T00:40:45.449Z,98.00
2019-05-30T00:43:13.102Z,97.70
2019-05-30T00:45:40.740Z,97.60
2019-05-30T00:48:08.612Z,97.90
2019-05-30T00:50:36.254Z,98.30
2019-05-30T00:53:05.368Z,98.00
2019-05-30T00:55:33.234Z,98.30
2019-05-30T00:58:01.155Z,98.30
2019-05-30T01:00:42.851Z,98.60
2019-05-30T01:02:59.916Z,98.80
2019-05-30T01:05:27.666Z,98.70
2019-05-30T01:07:56.656Z,99.10
2019-05-30T01:10:24.574Z,99.40
2019-05-30T01:12:52.304Z,99.50
2019-05-30T01:15:20.015Z,99.70
2019-05-30T01:17:47.766Z,99.10
2019-05-30T01:20:15.783Z,99.40
2019-05-30T01:22:43.480Z,99.30
2019-05-30T01:25:11.295Z,99.30
2019-05-30T01:27:39.245Z,98.40
2019-05-30T01:30:08.239Z,98.40
2019-05-30T01:32:35.955Z,98.80
2019-05-30T01:35:04.135Z,98.50
2019-05-30T01:37:31.908Z,98.80
2019-05-30T01:39:59.833Z,98.80
2019-05-30T01:42:27.623Z,98.40
2019-05-30T01:44:55.624Z,98.00
2019-05-30T01:47:23.367Z,98.20
2019-05-30T01:49:51.117Z,98.40
2019-05-30T01:52:18.824Z,99.10
2019-05-30T01:54:46.982Z,99.10
2019-05-30T01:57:14.699Z,98.80
2019-05-30T01:59:42.604Z,98.80
2019-05-30T02:02:10.268Z,98.80
2019-05-30T02:04:38.047Z,99.10
2019-05-30T02:07:05.762Z,98.80
2019-05-30T02:09:33.477Z,98.90
2019-05-30T02:12:01.274Z,97.60
2019-05-30T02:14:28.972Z,98.00
2019-05-30T02:16:56.679Z,97.70
2019-05-30T02:19:24.327Z,97.20
2019-05-30T02:21:51.973Z,97.30
2019-05-30T02:24:19.927Z,97.30
2019-05-30T02:26:47.863Z,98.00
2019-05-30T02:29:15.837Z,98.20
2019-05-30T02:31:43.611Z,98.20
2019-05-30T02:34:12.220Z,97.60
2019-05-30T02:36:40.130Z,97.80
2019-05-30T02:41:37.368Z,98.10
2019-05-30T02:44:05.669Z,98.50
2019-05-30T02:46:34.461Z,98.60
2019-05-30T02:49:04.366Z,98.00
2019-05-30T02:51:31.615Z,98.00
2019-05-30T02:53:59.329Z,98.20
2019-05-30T02:56:27.042Z,97.70
2019-05-30T02:58:54.677Z,98.00
2019-05-30T03:01:22.396Z,98.50
2019-05-30T03:03:50.444Z,98.20
2019-05-30T03:06:18.086Z,98.50
2019-05-30T03:08:45.813Z,98.80
2019-05-30T03:11:15.563Z,98.40
2019-05-30T03:13:43.072Z,98.70
2019-05-30T03:16:11.778Z,98.00
2019-05-30T03:18:40.256Z,98.10
2019-05-30T03:21:09.851Z,97.90
2019-05-30T03:23:37.448Z,98.50
2019-05-30T03:26:07.115Z,98.60
2019-05-30T03:28:34.641Z,98.40
2019-05-30T03:31:05.687Z,98.00
2019-05-30T03:33:40.959Z,98.30
2019-05-30T03:36:09.218Z,98.50
2019-05-30T03:38:31.815Z,98.30
2019-05-30T03:40:59.519Z,98.40
2019-05-30T03:43:27.360Z,98.20
2019-05-30T03:45:55.432Z,98.50
2019-05-30T03:48:23.239Z,98.40
2019-05-30T03:50:52.941Z,98.60
2019-05-30T03:53:21.058Z,98.80
2019-05-30T03:55:50.490Z,98.70
2019-05-30T03:58:36.390Z,98.20
2019-05-30T04:03:35.887Z,98.30
2019-05-30T04:06:07.037Z,98.40
2019-05-30T04:08:35.749Z,97.90
2019-05-30T04:11:04.934Z,98.00
2019-05-30T04:13:43.534Z,98.20
2019-05-30T04:16:13.322Z,98.50
2019-05-30T04:18:40.743Z,98.70
2019-05-30T04:21:09.031Z,98.50
2019-05-30T04:23:37.883Z,98.60
2019-05-30T04:26:07.272Z,98.50
2019-05-30T04:28:35.016Z,98.30
2019-05-30T04:31:02.935Z,98.60
2019-05-30T04:33:33.521Z,98.40
2019-05-30T04:36:00.076Z,98.40
2019-05-30T04:38:27.720Z,98.40
2019-05-30T04:40:55.363Z,98.50
2019-05-30T04:43:23.123Z,98.70
2019-05-30T04:45:50.768Z,98.50
2019-05-30T04:48:20.947Z,98.50
2019-05-30T04:50:48.150Z,98.30
2019-05-30T04:53:16.325Z,98.60
2019-05-30T04:55:44.467Z,98.60
2019-05-30T04:58:13.313Z,98.30
2019-05-30T05:00:41.795Z,98.40
2019-05-30T05:03:11.206Z,98.20
2019-05-30T05:05:39.104Z,97.90
2019-05-30T05:08:07.007Z,98.10
2019-05-30T05:10:34.730Z,97.50
2019-05-30T05:13:02.403Z,97.80
2019-05-30T05:15:30.060Z,97.70
2019-05-30T05:17:57.707Z,97.60
2019-05-30T05:20:25.637Z,97.10
2019-05-30T05:22:53.293Z,96.80
2019-05-30T05:25:21.476Z,96.30
2019-05-30T05:27:49.306Z,95.80
2019-05-30T05:30:17.986Z,96.10
2019-05-30T05:35:14.674Z,95.90
2019-05-30T05:37:42.620Z,95.50
2019-05-30T05:40:11.237Z,95.20
2019-05-30T05:42:38.890Z,94.70
2019-05-30T05:45:07.349Z,95.00
2019-05-30T05:47:34.993Z,93.80
2019-05-30T05:50:02.715Z,93.60
2019-05-30T05:52:30.552Z,93.20
2019-05-30T05:54:58.198Z,93.00
2019-05-30T05:57:25.843Z,92.70
2019-05-30T05:59:53.529Z,90.80
2019-05-30T06:02:21.184Z,91.10
2019-05-30T06:04:48.962Z,90.60
2019-05-30T06:07:16.598Z,88.30
2019-05-30T06:09:44.246Z,90.40
2019-05-30T06:12:12.057Z,89.90
2019-05-30T06:14:39.723Z,91.30
2019-05-30T06:17:07.447Z,92.10
2019-05-30T06:19:45.860Z,92.30
2019-05-30T06:22:04.665Z,91.30
2019-05-30T06:24:32.605Z,91.00
2019-05-30T06:27:00.260Z,88.20
2019-05-30T06:29:28.408Z,88.80
2019-05-30T06:31:56.104Z,88.60
2019-05-30T06:34:34.880Z,89.60
2019-05-30T06:36:53.158Z,88.50
2019-05-30T06:39:21.356Z,89.60
2019-05-30T06:41:49.087Z,87.30
2019-05-30T06:44:16.786Z,88.70
2019-05-30T06:46:44.574Z,87.10
2019-05-30T06:49:12.237Z,87.40
2019-05-30T06:51:39.920Z,87.40
2019-05-30T06:54:07.575Z,83.80
2019-05-30T06:56:35.220Z,84.30
2019-05-30T06:59:03.454Z,83.40
2019-05-30T07:01:32.158Z,83.40
2019-05-30T07:04:00.008Z,81.80
2019-05-30T07:06:29.492Z,86.10
2019-05-30T07:08:57.509Z,77.60
2019-05-30T07:11:25.405Z,75.70
2019-05-30T07:13:53.079Z,76.60
2019-05-30T07:16:21.087Z,77.30
2019-05-30T07:18:48.780Z,77.80
2019-05-30T07:21:17.245Z,76.50
2019-05-30T07:23:45.020Z,73.80
2019-05-30T07:26:13.716Z,75.20
2019-05-30T07:28:41.368Z,72.10
2019-05-30T07:31:09.325Z,71.10
2019-05-30T07:33:36.975Z,72.10
2019-05-30T07:36:05.240Z,74.00
2019-05-30T07:38:32.908Z,73.60
2019-05-30T07:41:00.564Z,71.70
2019-05-30T07:43:29.079Z,75.60
2019-05-30T07:45:58.586Z,75.30
2019-05-30T07:48:26.568Z,73.40
2019-05-30T07:50:54.486Z,72.00
2019-05-30T07:53:22.375Z,66.00
2019-05-30T07:55:50.159Z,60.60
2019-05-30T07:58:17.808Z,61.20
2019-05-30T08:00:45.479Z,62.60
2019-05-30T08:03:13.459Z,59.20
2019-05-30T08:05:41.494Z,59.70
2019-05-30T08:08:09.474Z,59.10
2019-05-30T08:10:38.152Z,54.90
2019-05-30T08:13:06.515Z,55.10
2019-05-30T08:15:36.361Z,58.10
2019-05-30T08:18:03.663Z,56.60
2019-05-30T08:20:31.707Z,57.80
2019-05-30T08:25:27.890Z,54.40
2019-05-30T08:27:55.704Z,55.10
2019-05-30T08:32:51.072Z,57.70
2019-05-30T08:35:18.803Z,55.30
2019-05-30T08:37:46.460Z,57.60
2019-05-30T08:40:14.427Z,49.10
2019-05-30T08:42:42.077Z,48.50
2019-05-30T08:45:10.273Z,51.60
2019-05-30T08:47:38.263Z,50.20
2019-05-30T08:50:06.382Z,51.30
2019-05-30T08:52:34.426Z,51.10
2019-05-30T08:55:02.155Z,51.70
2019-05-30T08:57:30.473Z,52.20
2019-05-30T08:59:58.262Z,50.50
2019-05-30T09:02:25.943Z,51.20
2019-05-30T09:04:53.587Z,50.00
2019-05-30T09:07:21.282Z,50.00
2019-05-30T09:09:49.197Z,52.60
2019-05-30T09:12:16.939Z,50.90
2019-05-30T09:14:45.333Z,49.70
2019-05-30T09:17:13.139Z,53.10
2019-05-30T09:19:41.504Z,51.10
2019-05-30T09:22:09.425Z,50.50
2019-05-30T09:24:38.476Z,50.20
2019-05-30T09:27:06.456Z,50.80
2019-05-30T09:29:34.305Z,51.60
2019-05-30T09:32:01.970Z,50.60
2019-05-30T09:34:29.695Z,50.60
2019-05-30T09:41:52.267Z,50.90
2019-05-30T09:44:20.046Z,51.30
2019-05-30T09:46:48.507Z,51.20
2019-05-30T09:49:16.487Z,51.50
2019-05-30T09:56:40.459Z,51.30
2019-05-30T09:59:08.256Z,52.70
2019-05-30T10:01:35.973Z,52.80
2019-05-30T10:04:03.825Z,52.90
2019-05-30T10:08:58.881Z,52.50
2019-05-30T10:11:26.613Z,53.30
2019-05-30T10:13:54.455Z,53.00
2019-05-30T10:16:22.144Z,51.20
2019-05-30T10:18:50.808Z,52.20
2019-05-30T10:21:18.486Z,52.10
2019-05-30T10:23:47.525Z,53.30
2019-05-30T10:26:15.871Z,52.40
2019-05-30T10:28:43.589Z,54.90
2019-05-30T10:33:39.025Z,52.30
2019-05-30T10:36:06.750Z,51.20
2019-05-30T10:38:34.532Z,51.70
2019-05-30T10:41:02.211Z,51.50
2019-05-30T10:43:29.925Z,51.50
2019-05-30T10:45:57.623Z,49.50
2019-05-30T10:48:25.286Z,52.00
2019-05-30T10:50:54.328Z,53.30
2019-05-30T10:53:22.154Z,52.00
2019-05-30T10:55:50.249Z,49.70
2019-05-30T10:58:17.939Z,50.20
2019-05-30T11:00:48.584Z,50.30
2019-05-30T11:03:17.789Z,54.20
2019-05-30T11:05:47.542Z,50.00
2019-05-30T11:08:17.834Z,51.10
2019-05-30T11:10:46.406Z,49.80
2019-05-30T11:13:15.594Z,50.20
2019-05-30T11:15:43.815Z,51.50
2019-05-30T11:18:11.843Z,50.60
2019-05-30T11:20:39.631Z,51.40
2019-05-30T11:23:07.343Z,51.40
2019-05-30T11:25:35.257Z,53.10
2019-05-30T11:28:03.230Z,48.90
2019-05-30T11:30:30.971Z,49.70
2019-05-30T11:32:59.448Z,47.10
2019-05-30T11:35:27.496Z,48.40
2019-05-30T11:37:55.272Z,48.10
2019-05-30T11:40:23.873Z,47.40
2019-05-30T11:42:51.571Z,49.30
2019-05-30T11:45:19.276Z,49.90
2019-05-30T11:47:46.919Z,49.10
2019-05-30T11:50:14.880Z,49.00
2019-05-30T11:52:42.705Z,47.20
2019-05-30T11:55:10.344Z,47.40
2019-05-30T11:57:38.127Z,48.20
2019-05-30T12:00:06.619Z,46.70
2019-05-30T12:02:34.263Z,47.00
2019-05-30T12:05:01.977Z,47.20
2019-05-30T12:07:36.259Z,48.00
2019-05-30T12:09:59.065Z,44.90
2019-05-30T12:12:26.847Z,45.80
2019-05-30T12:14:55.246Z,45.10
2019-05-30T12:17:23.059Z,47.10
2019-05-30T12:19:51.379Z,47.00
2019-05-30T12:22:19.204Z,47.80
2019-05-30T12:24:47.091Z,45.90
2019-05-30T12:27:14.750Z,46.20
2019-05-30T12:29:42.529Z,45.00
2019-05-30T12:32:10.242Z,45.20
2019-05-30T12:34:37.943Z,44.80
2019-05-30T12:37:05.659Z,45.10
2019-05-30T12:39:33.576Z,44.60
2019-05-30T12:42:01.417Z,44.60
2019-05-30T12:44:29.071Z,45.60
2019-05-30T12:46:57.097Z,43.30
2019-05-30T12:49:25.313Z,44.50
2019-05-30T12:51:54.069Z,43.20
2019-05-30T12:54:21.882Z,44.00
2019-05-30T12:56:49.668Z,42.30
2019-05-30T12:59:17.639Z,43.40
2019-05-30T13:01:45.304Z,43.70
2019-05-30T13:04:12.997Z,43.10
2019-05-30T13:06:40.909Z,48.30
2019-05-30T13:09:09.038Z,41.90
2019-05-30T13:11:37.847Z,42.60
2019-05-30T13:14:06.896Z,43.40
2019-05-30T13:19:04.280Z,42.20
2019-05-30T13:21:32.131Z,43.30
2019-05-30T13:26:27.352Z,42.40
2019-05-30T13:28:55.955Z,42.90
2019-05-30T13:31:23.856Z,38.90
2019-05-30T13:33:53.616Z,41.90
2019-05-30T13:36:21.407Z,38.90
2019-05-30T13:41:16.503Z,37.70
2019-05-30T13:43:44.376Z,37.20
2019-05-30T13:46:12.296Z,37.20
2019-05-30T13:48:40.043Z,38.00
2019-05-30T13:51:07.744Z,39.70
2019-05-30T13:53:35.393Z,36.00
2019-05-30T13:58:31.200Z,36.30
2019-05-30T14:00:59.855Z,37.20
2019-05-30T14:03:28.934Z,36.60
2019-05-30T14:05:56.592Z,36.40
2019-05-30T14:08:24.249Z,35.30
2019-05-30T14:10:51.997Z,36.00
2019-05-30T14:13:19.639Z,37.50
2019-05-30T14:15:47.416Z,33.30
2019-05-30T14:18:15.073Z,33.00
2019-05-30T14:20:42.738Z,34.10
2019-05-30T14:23:11.784Z,33.70
2019-05-30T14:28:07.834Z,34.50
2019-05-30T14:30:35.582Z,34.00
2019-05-30T14:33:04.089Z,34.80
2019-05-30T14:35:32.059Z,35.00
2019-05-30T14:37:59.710Z,32.40
2019-05-30T14:42:54.891Z,30.00
2019-05-30T14:45:22.607Z,27.50
2019-05-30T14:47:50.272Z,28.60
2019-05-30T14:50:18.144Z,27.40
2019-05-30T14:52:45.956Z,26.60
2019-05-30T14:55:14.478Z,24.80
2019-05-30T14:57:42.248Z,25.80
2019-05-30T15:00:13.449Z,24.80
2019-05-30T15:02:41.663Z,25.30
2019-05-30T15:05:09.543Z,25.80
2019-05-30T15:07:37.216Z,26.30
2019-05-30T15:10:06.591Z,24.40
2019-05-30T15:15:02.462Z,26.30
2019-05-30T15:17:30.386Z,25.80
2019-05-30T15:19:58.109Z,25.70
2019-05-30T15:22:25.899Z,25.50
2019-05-30T15:24:53.556Z,27.00
2019-05-30T15:27:21.231Z,27.10
2019-05-30T15:29:48.917Z,26.20
2019-05-30T15:32:16.657Z,27.50
2019-05-30T15:34:44.616Z,26.80
2019-05-30T15:37:12.796Z,26.10
2019-05-30T15:39:41.567Z,25.60
2019-05-30T15:42:09.216Z,25.10
2019-05-30T15:44:36.861Z,25.00
2019-05-30T15:47:04.990Z,26.00
2019-05-30T15:49:32.650Z,26.10
2019-05-30T15:52:00.319Z,26.20
2019-05-30T15:54:28.095Z,26.60
2019-05-30T15:56:55.829Z,25.90
2019-05-30T15:59:23.508Z,25.40
2019-05-30T16:01:51.549Z,25.80
2019-05-30T16:04:20.467Z,26.50
2019-05-30T16:06:48.343Z,24.80
2019-05-30T16:09:16.781Z,25.30
2019-05-30T16:11:44.521Z,24.60
2019-05-30T16:14:13.214Z,25.30
2019-05-30T16:16:41.481Z,26.10
2019-05-30T16:19:17.403Z,25.70
2019-05-30T16:21:38.743Z,25.00
2019-05-30T16:24:06.499Z,25.40
2019-05-30T16:26:34.221Z,26.10
2019-05-30T16:29:01.909Z,24.90
2019-05-30T16:31:29.586Z,23.90
2019-05-30T16:33:57.247Z,24.30
2019-05-30T16:36:26.393Z,24.30
2019-05-30T16:38:54.084Z,25.00
2019-05-30T16:41:22.580Z,23.50
2019-05-30T16:43:50.403Z,24.20
2019-05-30T16:46:18.367Z,26.60
2019-05-30T16:48:46.091Z,27.10
2019-05-30T16:51:14.730Z,26.20
2019-05-30T16:53:42.565Z,26.40
2019-05-30T16:56:10.368Z,27.00
2019-05-30T16:58:38.025Z,27.20
2019-05-30T17:01:05.903Z,27.70
2019-05-30T17:03:33.568Z,27.20
2019-05-30T17:06:01.230Z,28.60
2019-05-30T17:08:29.022Z,28.50
2019-05-30T17:10:56.697Z,28.90
2019-05-30T17:13:24.359Z,29.50
2019-05-30T17:15:52.179Z,29.20
2019-05-30T17:18:20.291Z,27.90
2019-05-30T17:20:48.626Z,28.00
2019-05-30T17:23:16.752Z,28.50
2019-05-30T17:25:44.614Z,29.30
2019-05-30T17:28:14.884Z,30.50
2019-05-30T17:30:42.132Z,30.70
2019-05-30T17:33:09.774Z,31.90
2019-05-30T17:35:37.498Z,34.00
2019-05-30T17:38:05.176Z,35.80
2019-05-30T17:40:43.595Z,36.70
2019-05-30T17:43:02.337Z,37.60
2019-05-30T17:45:30.055Z,38.60
2019-05-30T17:48:02.914Z,39.20
2019-05-30T17:50:27.864Z,39.80
2019-05-30T17:52:55.609Z,41.10
2019-05-30T17:55:23.894Z,40.40
2019-05-30T17:57:51.728Z,42.40
2019-05-30T18:00:20.377Z,43.60
2019-05-30T18:02:48.388Z,44.00
2019-05-30T18:05:16.111Z,45.70
2019-05-30T18:07:43.772Z,46.40
2019-05-30T18:10:12.489Z,46.90
2019-05-30T18:12:40.141Z,49.40
2019-05-30T18:15:11.494Z,48.80
2019-05-30T18:17:39.195Z,50.30
2019-05-30T18:20:08.319Z,50.90
2019-05-30T18:22:36.271Z,52.30
2019-05-30T18:25:05.794Z,51.40
2019-05-30T18:30:00.816Z,51.90
2019-05-30T18:32:28.752Z,51.10
2019-05-30T18:34:57.484Z,51.30
2019-05-30T18:57:06.460Z,57.90
2019-05-30T18:59:34.159Z,61.00
2019-05-30T19:16:47.793Z,69.80
2019-05-30T19:19:15.753Z,71.60
2019-05-30T19:21:43.431Z,72.30
2019-05-30T19:24:11.171Z,72.10
2019-05-30T19:26:39.015Z,73.50
2019-05-30T19:29:06.973Z,73.60
2019-05-30T19:31:34.859Z,73.70
2019-05-30T19:34:02.629Z,74.70
2019-05-30T19:36:31.020Z,76.10
2019-05-30T19:38:59.115Z,76.90
2019-05-30T19:41:27.445Z,78.20
2019-05-30T19:43:56.262Z,78.40
2019-05-30T19:46:23.933Z,78.20
2019-05-30T19:48:51.787Z,77.00
2019-05-30T19:51:21.044Z,76.60
2019-05-30T19:53:48.913Z,79.70
2019-05-30T19:56:16.716Z,81.90
2019-05-30T19:58:44.375Z,82.80
2019-05-30T20:01:12.054Z,81.40
2019-05-30T20:03:45.190Z,82.10
2019-05-30T20:06:09.197Z,83.70
2019-05-30T20:08:52.493Z,85.60
2019-05-30T20:13:35.024Z,85.90
2019-05-30T20:20:58.261Z,85.20
2019-05-30T20:23:26.003Z,86.10
2019-05-30T20:25:53.769Z,86.90
2019-05-30T20:30:48.862Z,88.60
2019-05-30T20:33:16.708Z,89.20
2019-05-30T20:38:11.892Z,89.60
2019-05-30T20:40:40.842Z,89.10
2019-05-30T20:43:08.961Z,89.40
2019-05-30T20:45:39.546Z,89.10
2019-05-30T20:48:06.131Z,89.70
2019-05-30T20:50:34.935Z,90.10
2019-05-30T20:53:02.787Z,90.50
2019-05-30T20:55:30.424Z,90.20
2019-05-30T20:57:58.174Z,89.40
2019-05-30T21:00:39.853Z,90.00
2019-05-30T21:03:08.160Z,88.20
2019-05-30T21:05:36.287Z,88.10
2019-05-30T21:08:05.918Z,88.80
2019-05-30T21:10:34.926Z,87.20
2019-05-30T21:13:04.015Z,87.70
2019-05-30T21:15:32.035Z,88.20
2019-05-30T21:17:59.759Z,89.10
2019-05-30T21:20:27.547Z,89.80
2019-05-30T21:22:55.527Z,90.10
2019-05-30T21:25:23.307Z,90.20
2019-05-30T21:27:51.182Z,90.80
2019-05-30T21:30:20.297Z,91.30
2019-05-30T21:32:48.513Z,91.60
2019-05-30T21:35:16.654Z,91.60
2019-05-30T21:37:44.419Z,91.90
2019-05-30T21:40:12.139Z,92.20
2019-05-30T21:42:55.667Z,91.80
2019-05-30T21:45:09.375Z,92.30
2019-05-30T21:47:37.494Z,92.50
2019-05-30T21:50:06.837Z,92.00
2019-05-30T21:52:34.779Z,92.20
2019-05-30T21:55:03.607Z,92.20
2019-05-30T21:57:31.530Z,92.50
2019-05-30T21:59:59.212Z,92.30
2019-05-30T22:02:26.946Z,92.50
2019-05-30T22:04:54.754Z,92.50
2019-05-30T22:07:22.676Z,92.80
2019-05-30T22:09:51.448Z,93.00
2019-05-30T22:12:19.561Z,92.80
2019-05-30T22:14:47.811Z,93.00
2019-05-30T22:17:15.607Z,93.40
2019-05-30T22:19:43.810Z,93.30
2019-05-30T22:22:11.499Z,93.00
2019-05-30T22:24:39.163Z,93.20
2019-05-30T22:27:06.838Z,93.00
2019-05-30T22:29:34.534Z,93.30
2019-05-30T22:32:03.166Z,93.50
2019-05-30T22:34:31.127Z,93.20
2019-05-30T22:36:58.782Z,93.30
2019-05-30T22:39:26.427Z,93.50
2019-05-30T22:41:54.127Z,93.80
2019-05-30T22:44:21.770Z,93.50
2019-05-30T22:46:50.221Z,93.20
2019-05-30T22:49:18.146Z,93.50
2019-05-30T22:51:46.921Z,93.40
2019-05-30T22:54:14.735Z,93.40
2019-05-30T22:56:42.491Z,93.60
2019-05-30T22:59:10.281Z,93.90
2019-05-30T23:01:38.075Z,93.80
2019-05-30T23:04:05.791Z,93.90
2019-05-30T23:06:33.445Z,94.00
2019-05-30T23:09:01.397Z,94.20
2019-05-30T23:11:29.091Z,93.70
2019-05-30T23:13:56.735Z,93.50
2019-05-30T23:16:24.374Z,93.80
2019-05-30T23:18:52.603Z,93.40
2019-05-30T23:21:20.384Z,93.40
2019-05-30T23:23:48.899Z,93.30
2019-05-30T23:26:16.697Z,93.60
2019-05-30T23:28:44.339Z,93.70
2019-05-30T23:31:11.995Z,93.40
2019-05-30T23:33:39.699Z,93.60
2019-05-30T23:36:07.350Z,93.30
2019-05-30T23:38:35.073Z,93.60
2019-05-30T23:41:02.848Z,93.40
2019-05-30T23:43:30.500Z,93.70
2019-05-30T23:45:58.146Z,94.20
2019-05-30T23:48:25.920Z,93.90
2019-05-30T23:50:53.868Z,94.10
2019-05-30T23:53:21.822Z,94.40
2019-05-30T23:55:50.202Z,95.20
2019-05-30T23:58:18.038Z,94.50
